createdAt,value
2017-10-31T00:00:49.286Z,5.3
2017-10-31T00:01:48.701Z,5.3
2017-10-31T00:02:47.978Z,5.3
2017-10-31T00:03:46.493Z,5.3
2017-10-31T00:04:45.784Z,5.3
2017-10-31T00:05:44.801Z,5.3
2017-10-31T00:07:43.225Z,5.3
2017-10-31T00:08:41.999Z,5.3
2017-10-31T00:09:41.023Z,5.3
2017-10-31T00:10:40.296Z,5.3
2017-10-31T00:11:38.798Z,5.3
2017-10-31T00:12:38.309Z,5.3
2017-10-31T00:13:37.308Z,5.3
2017-10-31T00:14:36.320Z,5.3
2017-10-31T00:15:35.724Z,5.4
2017-10-31T00:16:34.227Z,5.3
2017-10-31T00:17:33.509Z,5.3
2017-10-31T00:18:32.642Z,5.4
2017-10-31T00:19:31.915Z,5.4
2017-10-31T00:20:30.559Z,5.4
2017-10-31T00:21:29.695Z,5.4
2017-10-31T00:22:28.834Z,5.4
2017-10-31T00:23:27.986Z,5.4
2017-10-31T00:24:27.113Z,5.4
2017-10-31T00:25:25.757Z,5.4
2017-10-31T00:26:24.766Z,5.4
2017-10-31T00:27:23.912Z,5.3
2017-10-31T00:28:22.919Z,5.3
2017-10-31T00:29:21.925Z,5.3
2017-10-31T00:30:21.198Z,5.4
2017-10-31T00:31:20.075Z,5.4
2017-10-31T00:32:19.078Z,5.4
2017-10-31T00:33:18.084Z,5.4
2017-10-31T00:34:17.354Z,5.4
2017-10-31T00:35:16.768Z,5.4
2017-10-31T00:36:15.406Z,5.4
2017-10-31T00:37:14.802Z,5.4
2017-10-31T00:38:13.722Z,5.4
2017-10-31T00:39:12.228Z,5.4
2017-10-31T00:40:12.136Z,5.4
2017-10-31T00:41:10.783Z,5.4
2017-10-31T00:42:09.926Z,5.4
2017-10-31T00:43:08.435Z,5.4
2017-10-31T00:44:07.948Z,5.4
2017-10-31T00:45:07.087Z,5.5
2017-10-31T00:46:05.858Z,5.5
2017-10-31T00:47:04.740Z,5.5
2017-10-31T00:48:04.388Z,5.5
2017-10-31T00:49:03.033Z,5.5
2017-10-31T00:50:02.471Z,5.6
2017-10-31T00:51:01.113Z,5.6
2017-10-31T00:52:59.146Z,5.6
2017-10-31T00:53:58.023Z,5.6
2017-10-31T00:54:57.394Z,5.7
2017-10-31T00:55:56.537Z,5.7
2017-10-31T00:56:55.816Z,5.7
2017-10-31T00:57:54.829Z,5.7
2017-10-31T00:58:53.965Z,5.7
2017-10-31T00:59:52.464Z,5.7
2017-10-31T01:00:51.727Z,5.7
2017-10-31T01:01:50.997Z,5.7
2017-10-31T01:02:21.319Z,5.7
2017-10-31T01:02:51.506Z,5.8
2017-10-31T01:03:22.243Z,5.8
2017-10-31T01:03:52.563Z,5.8
2017-10-31T01:04:48.305Z,5.8
2017-10-31T01:05:46.557Z,5.8
2017-10-31T01:06:46.342Z,5.8
2017-10-31T01:07:44.986Z,5.8
2017-10-31T01:08:44.010Z,5.8
2017-10-31T01:09:43.295Z,5.8
2017-10-31T01:10:42.159Z,5.9
2017-10-31T01:11:41.301Z,5.9
2017-10-31T01:12:40.309Z,5.9
2017-10-31T01:13:10.899Z,5.9
2017-10-31T01:14:39.137Z,5.9
2017-10-31T01:15:37.757Z,5.9
2017-10-31T01:16:36.537Z,5.9
2017-10-31T01:17:35.815Z,5.9
2017-10-31T01:18:35.215Z,6
2017-10-31T01:19:33.982Z,6
2017-10-31T01:20:32.483Z,6
2017-10-31T01:21:32.128Z,6
2017-10-31T01:22:31.270Z,6
2017-10-31T01:23:29.768Z,6
2017-10-31T01:24:28.644Z,6
2017-10-31T01:25:28.292Z,6
2017-10-31T01:26:27.578Z,6
2017-10-31T01:27:26.089Z,6
2017-10-31T01:28:25.233Z,6
2017-10-31T01:29:24.503Z,6
2017-10-31T01:30:23.656Z,6
2017-10-31T01:31:22.166Z,6
2017-10-31T01:32:21.805Z,6
2017-10-31T01:33:20.952Z,6
2017-10-31T01:34:19.603Z,6
2017-10-31T01:35:18.740Z,6
2017-10-31T01:36:17.617Z,6.1
2017-10-31T01:37:16.904Z,6.1
2017-10-31T01:38:16.179Z,6.1
2017-10-31T01:39:14.816Z,6.1
2017-10-31T01:40:13.964Z,6.1
2017-10-31T01:42:29.885Z,6.1
2017-10-31T01:42:31.654Z,6.1
2017-10-31T01:44:10.422Z,6.1
2017-10-31T01:44:40.491Z,6.1
2017-10-31T01:46:08.201Z,6.1
2017-10-31T01:47:07.218Z,6.1
2017-10-31T01:48:06.881Z,6.1
2017-10-31T01:49:05.790Z,6.1
2017-10-31T01:50:04.680Z,6.1
2017-10-31T01:51:03.718Z,6.2
2017-10-31T01:52:02.733Z,6.2
2017-10-31T01:53:01.876Z,6.2
2017-10-31T01:54:01.026Z,6.2
2017-10-31T01:54:31.769Z,6.2
2017-10-31T01:55:58.831Z,6.2
2017-10-31T01:56:57.855Z,6.2
2017-10-31T01:57:56.869Z,6.2
2017-10-31T01:58:56.125Z,6.2
2017-10-31T01:59:55.659Z,6.2
2017-10-31T02:00:54.180Z,6.2
2017-10-31T02:01:53.317Z,6.2
2017-10-31T02:02:52.201Z,6.2
2017-10-31T02:03:51.858Z,6.2
2017-10-31T02:04:50.762Z,6.2
2017-10-31T02:05:49.908Z,6.2
2017-10-31T02:06:49.065Z,6.2
2017-10-31T02:07:48.209Z,6.3
2017-10-31T02:08:46.994Z,6.3
2017-10-31T02:09:46.012Z,6.3
2017-10-31T02:10:45.156Z,6.3
2017-10-31T02:11:44.313Z,6.3
2017-10-31T02:12:42.690Z,6.3
2017-10-31T02:13:42.473Z,6.3
2017-10-31T02:15:40.235Z,6.3
2017-10-31T02:16:38.996Z,6.3
2017-10-31T02:17:38.510Z,6.3
2017-10-31T02:18:37.796Z,6.3
2017-10-31T02:19:36.695Z,6.3
2017-10-31T02:20:35.838Z,6.3
2017-10-31T02:21:35.134Z,6.4
2017-10-31T02:22:33.779Z,6.4
2017-10-31T02:23:32.924Z,6.4
2017-10-31T02:24:32.333Z,6.4
2017-10-31T02:25:02.794Z,6.4
2017-10-31T02:25:33.255Z,6.3
2017-10-31T02:26:30.257Z,6.4
2017-10-31T02:27:29.405Z,6.4
2017-10-31T02:28:28.285Z,6.4
2017-10-31T02:29:27.299Z,6.4
2017-10-31T02:30:26.858Z,6.3
2017-10-31T02:31:25.371Z,6.3
2017-10-31T02:32:24.515Z,6.3
2017-10-31T02:34:22.689Z,6.3
2017-10-31T02:35:21.830Z,6.3
2017-10-31T02:36:20.984Z,6.3
2017-10-31T02:37:19.912Z,6.3
2017-10-31T02:38:19.198Z,6.3
2017-10-31T02:39:18.077Z,6.3
2017-10-31T02:41:16.259Z,6.3
2017-10-31T02:42:15.684Z,6.3
2017-10-31T02:43:14.456Z,6.3
2017-10-31T02:44:13.105Z,6.3
2017-10-31T02:45:12.761Z,6.3
2017-10-31T02:46:11.398Z,6.3
2017-10-31T02:47:10.553Z,6.3
2017-10-31T02:48:09.573Z,6.3
2017-10-31T02:49:08.590Z,6.3
2017-10-31T02:50:07.740Z,6.3
2017-10-31T02:51:06.755Z,6.3
2017-10-31T02:52:06.160Z,6.3
2017-10-31T02:53:05.177Z,6.3
2017-10-31T02:54:03.990Z,6.3
2017-10-31T02:55:03.162Z,6.3
2017-10-31T02:56:02.308Z,6.3
2017-10-31T02:57:00.967Z,6.3
2017-10-31T02:58:00.626Z,6.3
2017-10-31T02:58:59.270Z,6.3
2017-10-31T03:00:57.441Z,6.3
2017-10-31T03:01:56.596Z,6.3
2017-10-31T03:02:55.481Z,6.3
2017-10-31T03:03:54.767Z,6.3
2017-10-31T03:04:53.909Z,6.3
2017-10-31T03:05:53.192Z,6.3
2017-10-31T03:06:51.691Z,6.3
2017-10-31T03:07:51.205Z,6.3
2017-10-31T03:08:50.344Z,6.3
2017-10-31T03:09:48.855Z,6.3
2017-10-31T03:10:48.500Z,6.3
2017-10-31T03:11:47.293Z,6.3
2017-10-31T03:12:46.447Z,6.3
2017-10-31T03:13:45.604Z,6.3
2017-10-31T03:14:44.624Z,6.3
2017-10-31T03:15:43.396Z,6.3
2017-10-31T03:16:42.276Z,6.3
2017-10-31T03:17:41.926Z,6.3
2017-10-31T03:18:40.701Z,6.3
2017-10-31T03:19:11.043Z,6.3
2017-10-31T03:20:39.011Z,6.3
2017-10-31T03:21:38.153Z,6.3
2017-10-31T03:22:37.173Z,6.3
2017-10-31T03:23:36.329Z,6.3
2017-10-31T03:24:34.840Z,6.3
2017-10-31T03:25:34.490Z,6.3
2017-10-31T03:26:33.398Z,6.3
2017-10-31T03:27:32.558Z,6.3
2017-10-31T03:28:31.202Z,6.4
2017-10-31T03:29:01.526Z,6.4
2017-10-31T03:30:29.763Z,6.3
2017-10-31T03:31:28.422Z,6.3
2017-10-31T03:32:27.712Z,6.4
2017-10-31T03:33:26.997Z,6.4
2017-10-31T03:34:25.903Z,6.4
2017-10-31T03:35:25.043Z,6.4
2017-10-31T03:36:24.335Z,6.4
2017-10-31T03:37:22.858Z,6.4
2017-10-31T03:38:22.138Z,6.4
2017-10-31T03:39:21.153Z,6.4
2017-10-31T03:40:20.458Z,6.4
2017-10-31T03:41:19.336Z,6.4
2017-10-31T03:42:18.483Z,6.4
2017-10-31T03:43:17.631Z,6.4
2017-10-31T03:44:16.506Z,6.4
2017-10-31T03:45:15.656Z,6.4
2017-10-31T03:46:14.666Z,6.4
2017-10-31T03:47:13.698Z,6.4
2017-10-31T03:48:12.840Z,6.4
2017-10-31T03:49:11.854Z,6.4
2017-10-31T03:50:11.145Z,6.4
2017-10-31T03:51:10.437Z,6.4
2017-10-31T03:52:08.959Z,6.4
2017-10-31T03:54:07.494Z,6.4
2017-10-31T03:55:06.518Z,6.4
2017-10-31T03:56:05.291Z,6.4
2017-10-31T03:57:04.448Z,6.3
2017-10-31T03:58:03.730Z,6.3
2017-10-31T03:59:02.509Z,6.3
2017-10-31T03:59:32.989Z,6.3
2017-10-31T04:01:00.829Z,6.3
2017-10-31T04:01:59.993Z,6.3
2017-10-31T04:02:59.281Z,6.3
2017-10-31T04:03:57.928Z,6.3
2017-10-31T04:04:56.817Z,6.3
2017-10-31T04:05:55.976Z,6.3
2017-10-31T04:06:54.989Z,6.3
2017-10-31T04:07:53.875Z,6.3
2017-10-31T04:08:53.125Z,6.3
2017-10-31T04:09:23.980Z,6.3
2017-10-31T04:09:54.074Z,6.3
2017-10-31T04:10:24.530Z,6.3
2017-10-31T04:10:55.385Z,6.3
2017-10-31T04:11:25.332Z,6.3
2017-10-31T04:11:55.660Z,6.3
2017-10-31T04:12:26.255Z,6.3
2017-10-31T04:13:48.820Z,6.3
2017-10-31T04:14:47.831Z,6.3
2017-10-31T04:15:46.986Z,6.3
2017-10-31T04:16:45.861Z,6.2
2017-10-31T04:17:45.009Z,6.2
2017-10-31T04:18:43.891Z,6.3
2017-10-31T04:19:43.048Z,6.3
2017-10-31T04:20:41.929Z,6.3
2017-10-31T04:21:41.205Z,6.3
2017-10-31T04:22:40.216Z,6.3
2017-10-31T04:23:39.516Z,6.3
2017-10-31T04:24:38.662Z,6.3
2017-10-31T04:25:37.309Z,6.3
2017-10-31T04:26:37.233Z,6.3
2017-10-31T04:27:35.873Z,6.3
2017-10-31T04:28:35.029Z,6.3
2017-10-31T04:29:33.812Z,6.3
2017-10-31T04:30:32.567Z,6.3
2017-10-31T04:31:31.856Z,6.3
2017-10-31T04:32:31.011Z,6.3
2017-10-31T04:33:29.886Z,6.3
2017-10-31T04:34:28.770Z,6.3
2017-10-31T04:35:28.552Z,6.3
2017-10-31T04:36:27.195Z,6.3
2017-10-31T04:37:26.335Z,6.3
2017-10-31T04:38:25.609Z,6.3
2017-10-31T04:39:24.247Z,6.3
2017-10-31T04:40:23.904Z,6.3
2017-10-31T04:40:54.095Z,6.3
2017-10-31T04:41:25.193Z,6.3
2017-10-31T04:42:21.949Z,6.3
2017-10-31T04:43:21.097Z,6.3
2017-10-31T04:44:19.869Z,6.3
2017-10-31T04:45:18.889Z,6.4
2017-10-31T04:47:17.048Z,6.4
2017-10-31T04:48:16.078Z,6.4
2017-10-31T04:49:15.091Z,6.4
2017-10-31T04:50:14.243Z,6.4
2017-10-31T04:51:13.391Z,6.4
2017-10-31T04:51:43.711Z,6.4
2017-10-31T04:53:11.541Z,6.3
2017-10-31T04:54:10.561Z,6.4
2017-10-31T04:55:09.710Z,6.4
2017-10-31T04:56:08.721Z,6.3
2017-10-31T04:57:08.004Z,6.3
2017-10-31T04:58:07.145Z,6.3
2017-10-31T04:59:05.650Z,6.3
2017-10-31T05:00:05.064Z,6.3
2017-10-31T05:01:03.937Z,6.3
2017-10-31T05:02:02.952Z,6.3
2017-10-31T05:03:02.496Z,6.3
2017-10-31T05:04:01.150Z,6.4
2017-10-31T05:05:00.442Z,6.3
2017-10-31T05:05:59.848Z,6.3
2017-10-31T05:06:58.643Z,6.3
2017-10-31T05:07:57.660Z,6.3
2017-10-31T05:08:56.678Z,6.3
2017-10-31T05:09:55.696Z,6.3
2017-10-31T05:10:54.846Z,6.3
2017-10-31T05:11:53.984Z,6.3
2017-10-31T05:12:53.122Z,6.3
2017-10-31T05:13:52.280Z,6.3
2017-10-31T05:14:51.051Z,6.3
2017-10-31T05:15:50.066Z,6.3
2017-10-31T05:16:49.227Z,6.2
2017-10-31T05:17:48.377Z,6.2
2017-10-31T05:18:47.798Z,6.2
2017-10-31T05:19:46.580Z,6.2
2017-10-31T05:20:45.756Z,6.2
2017-10-31T05:21:44.489Z,6.2
2017-10-31T05:22:43.781Z,6.3
2017-10-31T05:23:42.824Z,6.2
2017-10-31T05:24:41.966Z,6.2
2017-10-31T05:25:40.985Z,6.2
2017-10-31T05:28:22.712Z,6.2
2017-10-31T05:28:24.629Z,6.2
2017-10-31T05:29:37.105Z,6.2
2017-10-31T05:30:36.252Z,6.2
2017-10-31T05:31:35.392Z,6.2
2017-10-31T05:32:34.293Z,6.2
2017-10-31T05:33:33.182Z,6.2
2017-10-31T05:34:32.702Z,6.2
2017-10-31T05:35:31.728Z,6.2
2017-10-31T05:36:30.875Z,6.2
2017-10-31T05:37:29.912Z,6.2
2017-10-31T05:38:29.077Z,6.1
2017-10-31T05:39:27.591Z,6.1
2017-10-31T05:40:27.106Z,6.1
2017-10-31T05:41:25.752Z,6.1
2017-10-31T05:42:24.771Z,6.1
2017-10-31T05:43:24.545Z,6.1
2017-10-31T05:44:23.192Z,6.1
2017-10-31T05:45:22.205Z,6.1
2017-10-31T05:46:21.355Z,6.1
2017-10-31T05:47:20.494Z,6.2
2017-10-31T05:48:19.508Z,6.2
2017-10-31T05:49:18.389Z,6.2
2017-10-31T05:50:17.668Z,6.1
2017-10-31T05:52:15.841Z,6.2
2017-10-31T05:53:14.986Z,6.2
2017-10-31T05:54:14.125Z,6.2
2017-10-31T05:55:12.927Z,6.2
2017-10-31T05:56:11.810Z,6.2
2017-10-31T05:57:11.083Z,6.2
2017-10-31T05:59:08.846Z,6.2
2017-10-31T06:00:08.518Z,6.2
2017-10-31T06:02:06.815Z,6.2
2017-10-31T06:03:05.323Z,6.2
2017-10-31T06:05:03.725Z,6.2
2017-10-31T06:06:02.608Z,6.2
2017-10-31T06:07:01.885Z,6.2
2017-10-31T06:08:01.168Z,6.2
2017-10-31T06:08:59.540Z,6.2
2017-10-31T06:09:59.457Z,6.2
2017-10-31T06:11:56.853Z,6.2
2017-10-31T06:12:56.375Z,6.2
2017-10-31T06:13:55.261Z,6.2
2017-10-31T06:14:54.290Z,6.2
2017-10-31T06:15:53.589Z,6.2
2017-10-31T06:16:52.369Z,6.2
2017-10-31T06:17:51.390Z,6.2
2017-10-31T06:18:50.412Z,6.2
2017-10-31T06:19:49.566Z,6.2
2017-10-31T06:21:47.740Z,6.2
2017-10-31T06:22:47.014Z,6.2
2017-10-31T06:23:46.293Z,6.2
2017-10-31T06:24:44.674Z,6.2
2017-10-31T06:25:43.688Z,6.2
2017-10-31T06:26:43.206Z,6.2
2017-10-31T06:27:13.400Z,6.2
2017-10-31T06:27:44.117Z,6.2
2017-10-31T06:28:41.269Z,6.2
2017-10-31T06:29:40.682Z,6.2
2017-10-31T06:30:39.320Z,6.3
2017-10-31T06:31:38.599Z,6.3
2017-10-31T06:32:38.019Z,6.3
2017-10-31T06:33:36.390Z,6.3
2017-10-31T06:34:36.171Z,6.3
2017-10-31T06:35:34.824Z,6.3
2017-10-31T06:36:34.103Z,6.3
2017-10-31T06:37:33.005Z,6.3
2017-10-31T06:38:31.886Z,6.3
2017-10-31T06:39:31.041Z,6.4
2017-10-31T06:41:29.216Z,6.3
2017-10-31T06:42:28.499Z,6.4
2017-10-31T06:43:27.386Z,6.4
2017-10-31T06:44:26.798Z,6.4
2017-10-31T06:45:25.439Z,6.4
2017-10-31T06:46:24.585Z,6.4
2017-10-31T06:47:23.881Z,6.4
2017-10-31T06:48:22.516Z,6.4
2017-10-31T06:49:21.268Z,6.4
2017-10-31T06:51:19.818Z,6.4
2017-10-31T06:52:18.830Z,6.4
2017-10-31T06:54:16.866Z,6.4
2017-10-31T06:55:16.286Z,6.4
2017-10-31T06:56:15.182Z,6.4
2017-10-31T06:57:14.066Z,6.4
2017-10-31T06:58:13.494Z,6.4
2017-10-31T06:59:12.634Z,6.4
2017-10-31T07:00:11.781Z,6.5
2017-10-31T07:00:41.972Z,6.5
2017-10-31T07:01:12.941Z,6.4
2017-10-31T07:02:09.851Z,6.4
2017-10-31T07:03:08.370Z,6.5
2017-10-31T07:04:07.532Z,6.5
2017-10-31T07:05:07.052Z,6.5
2017-10-31T07:06:05.826Z,6.5
2017-10-31T07:07:04.969Z,6.5
2017-10-31T07:08:04.123Z,6.5
2017-10-31T07:09:03.414Z,6.5
2017-10-31T07:10:02.593Z,6.5
2017-10-31T07:11:01.106Z,6.5
2017-10-31T07:12:00.523Z,6.5
2017-10-31T07:12:59.432Z,6.5
2017-10-31T07:13:58.714Z,6.5
2017-10-31T07:14:58.029Z,6.6
2017-10-31T07:16:55.703Z,6.6
2017-10-31T07:17:54.985Z,6.5
2017-10-31T07:18:54.129Z,6.6
2017-10-31T07:19:53.139Z,6.6
2017-10-31T07:20:52.152Z,6.6
2017-10-31T07:21:51.433Z,6.6
2017-10-31T07:22:50.080Z,6.6
2017-10-31T07:23:49.091Z,6.6
2017-10-31T07:24:47.973Z,6.6
2017-10-31T07:25:46.857Z,6.6
2017-10-31T07:26:46.384Z,6.6
2017-10-31T07:27:45.401Z,6.6
2017-10-31T07:28:44.551Z,6.6
2017-10-31T07:29:43.853Z,6.6
2017-10-31T07:30:43.016Z,6.6
2017-10-31T07:31:41.802Z,6.6
2017-10-31T07:32:40.816Z,6.6
2017-10-31T07:33:40.104Z,6.6
2017-10-31T07:34:38.856Z,6.6
2017-10-31T07:35:38.151Z,6.6
2017-10-31T07:36:37.174Z,6.6
2017-10-31T07:37:36.064Z,6.6
2017-10-31T07:38:34.955Z,6.6
2017-10-31T07:39:34.606Z,6.6
2017-10-31T07:40:33.366Z,6.6
2017-10-31T07:41:32.781Z,6.6
2017-10-31T07:42:31.691Z,6.6
2017-10-31T07:43:30.857Z,6.7
2017-10-31T07:44:30.403Z,6.7
2017-10-31T07:45:29.089Z,6.7
2017-10-31T07:46:27.998Z,6.7
2017-10-31T07:47:27.173Z,6.7
2017-10-31T07:48:26.187Z,6.7
2017-10-31T07:49:25.069Z,6.7
2017-10-31T07:50:24.121Z,6.7
2017-10-31T07:51:23.410Z,6.7
2017-10-31T07:52:22.556Z,6.7
2017-10-31T07:53:21.572Z,6.7
2017-10-31T07:54:20.745Z,6.7
2017-10-31T07:55:19.887Z,6.8
2017-10-31T07:56:18.638Z,6.8
2017-10-31T07:58:16.946Z,6.8
2017-10-31T07:59:16.372Z,6.8
2017-10-31T08:00:15.148Z,6.8
2017-10-31T08:02:13.442Z,6.8
2017-10-31T08:04:11.468Z,6.8
2017-10-31T08:05:10.614Z,6.8
2017-10-31T08:06:09.254Z,6.8
2017-10-31T08:07:08.636Z,6.9
2017-10-31T08:08:07.782Z,6.9
2017-10-31T08:09:07.219Z,6.8
2017-10-31T08:10:05.986Z,6.8
2017-10-31T08:11:04.776Z,6.8
2017-10-31T08:12:03.919Z,6.8
2017-10-31T08:13:03.073Z,6.8
2017-10-31T08:14:02.364Z,6.8
2017-10-31T08:15:01.631Z,6.9
2017-10-31T08:15:59.879Z,6.9
2017-10-31T08:16:59.666Z,6.9
2017-10-31T08:17:58.325Z,6.9
2017-10-31T08:18:57.207Z,6.9
2017-10-31T08:19:56.362Z,6.9
2017-10-31T08:20:55.517Z,6.9
2017-10-31T08:21:54.786Z,7
2017-10-31T08:22:53.801Z,7
2017-10-31T08:23:52.809Z,7
2017-10-31T08:24:51.557Z,7
2017-10-31T08:25:51.341Z,7
2017-10-31T08:26:49.984Z,7.1
2017-10-31T08:27:48.870Z,7
2017-10-31T08:28:48.788Z,7.1
2017-10-31T08:29:47.560Z,7.1
2017-10-31T08:30:46.577Z,7.1
2017-10-31T08:31:45.852Z,7.1
2017-10-31T08:32:44.735Z,7.1
2017-10-31T08:33:43.748Z,7.2
2017-10-31T08:34:43.030Z,7.2
2017-10-31T08:35:12.992Z,7.2
2017-10-31T08:35:43.590Z,7.2
2017-10-31T08:36:40.955Z,7.2
2017-10-31T08:37:40.098Z,7.2
2017-10-31T08:38:39.107Z,7.2
2017-10-31T08:39:38.122Z,7.2
2017-10-31T08:40:37.145Z,7.2
2017-10-31T08:41:36.024Z,7.2
2017-10-31T08:42:35.542Z,7.2
2017-10-31T08:44:33.572Z,7.2
2017-10-31T08:45:32.449Z,7.2
2017-10-31T08:46:31.869Z,7.2
2017-10-31T08:47:31.141Z,7.2
2017-10-31T08:48:30.025Z,7.2
2017-10-31T08:49:29.312Z,7.3
2017-10-31T08:50:28.470Z,7.3
2017-10-31T08:51:27.005Z,7.3
2017-10-31T08:52:26.664Z,7.3
2017-10-31T08:53:25.302Z,7.3
2017-10-31T08:54:24.329Z,7.3
2017-10-31T08:55:23.868Z,7.3
2017-10-31T08:56:22.894Z,7.3
2017-10-31T08:57:22.176Z,7.3
2017-10-31T08:58:20.959Z,7.3
2017-10-31T08:59:20.236Z,7.3
2017-10-31T09:00:19.045Z,7.4
2017-10-31T09:01:17.802Z,7.3
2017-10-31T09:02:17.460Z,7.3
2017-10-31T09:03:16.476Z,7.3
2017-10-31T09:04:15.364Z,7.4
2017-10-31T09:05:14.776Z,7.4
2017-10-31T09:06:13.566Z,7.3
2017-10-31T09:07:12.713Z,7.4
2017-10-31T09:08:11.999Z,7.4
2017-10-31T09:09:10.877Z,7.4
2017-10-31T09:10:09.890Z,7.3
2017-10-31T09:11:08.908Z,7.3
2017-10-31T09:12:08.177Z,7.4
2017-10-31T09:13:07.188Z,7.3
2017-10-31T09:14:06.202Z,7.3
2017-10-31T09:15:05.086Z,7.3
2017-10-31T09:16:04.733Z,7.3
2017-10-31T09:17:03.373Z,7.3
2017-10-31T09:18:02.522Z,7.3
2017-10-31T09:19:01.531Z,7.3
2017-10-31T09:21:00.221Z,7.4
2017-10-31T09:21:58.601Z,7.4
2017-10-31T09:22:58.125Z,7.4
2017-10-31T09:23:57.022Z,7.3
2017-10-31T09:24:56.044Z,7.3
2017-10-31T09:25:55.333Z,7.4
2017-10-31T09:26:54.482Z,7.4
2017-10-31T09:27:53.625Z,7.4
2017-10-31T09:28:52.900Z,7.4
2017-10-31T09:29:51.542Z,7.4
2017-10-31T09:30:50.562Z,7.4
2017-10-31T09:31:49.847Z,7.4
2017-10-31T09:32:49.004Z,7.4
2017-10-31T09:33:48.181Z,7.4
2017-10-31T09:34:46.939Z,7.4
2017-10-31T09:35:46.081Z,7.4
2017-10-31T09:36:45.364Z,7.5
2017-10-31T09:37:44.541Z,7.5
2017-10-31T09:38:43.676Z,7.6
2017-10-31T09:39:42.846Z,7.6
2017-10-31T09:40:41.870Z,7.6
2017-10-31T09:41:40.542Z,7.7
2017-10-31T09:42:40.063Z,7.7
2017-10-31T09:43:38.823Z,7.7
2017-10-31T09:44:37.589Z,7.7
2017-10-31T09:45:36.848Z,7.7
2017-10-31T09:46:36.004Z,7.7
2017-10-31T09:47:35.020Z,7.8
2017-10-31T09:48:34.675Z,7.8
2017-10-31T09:49:33.954Z,7.8
2017-10-31T09:50:32.475Z,7.8
2017-10-31T09:51:31.500Z,7.8
2017-10-31T09:52:30.522Z,7.8
2017-10-31T09:53:29.546Z,7.8
2017-10-31T09:54:29.110Z,7.8
2017-10-31T09:55:28.269Z,7.8
2017-10-31T09:56:26.667Z,7.8
2017-10-31T09:57:26.054Z,7.9
2017-10-31T09:58:25.476Z,7.9
2017-10-31T09:59:24.501Z,7.9
2017-10-31T10:00:23.652Z,7.9
2017-10-31T10:01:22.794Z,7.9
2017-10-31T10:02:21.811Z,7.9
2017-10-31T10:03:20.823Z,7.9
2017-10-31T10:04:20.104Z,7.9
2017-10-31T10:05:18.747Z,7.9
2017-10-31T10:06:18.399Z,7.9
2017-10-31T10:07:17.153Z,7.9
2017-10-31T10:09:15.552Z,7.9
2017-10-31T10:10:14.349Z,8
2017-10-31T10:11:13.236Z,8.1
2017-10-31T10:12:12.894Z,8.1
2017-10-31T10:13:11.908Z,8.2
2017-10-31T10:13:42.235Z,8.2
2017-10-31T10:14:12.822Z,8.3
2017-10-31T10:14:42.783Z,8.3
2017-10-31T10:15:13.380Z,8.4
2017-10-31T10:16:08.872Z,8.5
2017-10-31T10:17:07.881Z,8.5
2017-10-31T10:18:07.169Z,8.5
2017-10-31T10:19:06.463Z,8.6
2017-10-31T10:20:05.616Z,8.6
2017-10-31T10:21:04.677Z,8.7
2017-10-31T10:22:03.680Z,8.7
2017-10-31T10:23:02.961Z,8.6
2017-10-31T10:25:01.270Z,8.6
2017-10-31T10:26:00.063Z,8.6
2017-10-31T10:26:59.341Z,8.6
2017-10-31T10:27:58.490Z,8.6
2017-10-31T10:28:57.269Z,8.6
2017-10-31T10:29:56.416Z,8.6
2017-10-31T10:30:55.297Z,8.6
2017-10-31T10:31:54.592Z,8.6
2017-10-31T10:32:53.631Z,8.6
2017-10-31T10:33:52.780Z,8.7
2017-10-31T10:34:51.923Z,8.7
2017-10-31T10:35:50.935Z,8.7
2017-10-31T10:36:49.950Z,8.7
2017-10-31T10:37:49.236Z,8.7
2017-10-31T10:38:48.115Z,8.7
2017-10-31T10:39:47.912Z,8.7
2017-10-31T10:40:46.422Z,8.7
2017-10-31T10:41:45.807Z,8.7
2017-10-31T10:42:44.825Z,8.6
2017-10-31T10:43:44.279Z,8.7
2017-10-31T10:44:43.290Z,8.7
2017-10-31T10:45:42.082Z,8.7
2017-10-31T10:46:41.091Z,8.7
2017-10-31T10:47:40.108Z,8.8
2017-10-31T10:48:39.520Z,8.8
2017-10-31T10:49:38.947Z,8.8
2017-10-31T10:50:37.454Z,8.8
2017-10-31T10:51:37.109Z,8.8
2017-10-31T10:52:35.756Z,8.8
2017-10-31T10:53:35.417Z,8.8
2017-10-31T10:54:33.927Z,8.7
2017-10-31T10:55:33.308Z,8.6
2017-10-31T10:56:32.461Z,8.7
2017-10-31T10:57:31.341Z,8.7
2017-10-31T10:59:29.879Z,8.7
2017-10-31T11:00:28.760Z,8.7
2017-10-31T11:01:27.643Z,8.7
2017-10-31T11:02:27.430Z,8.7
2017-10-31T11:03:26.202Z,8.7
2017-10-31T11:08:22.015Z,8.7
2017-10-31T11:09:20.535Z,8.8
2017-10-31T11:10:20.076Z,8.8
2017-10-31T11:11:19.106Z,8.9
2017-10-31T11:12:18.120Z,8.9
2017-10-31T11:13:17.402Z,9
2017-10-31T11:14:16.697Z,9
2017-10-31T11:15:15.348Z,9
2017-10-31T11:16:14.735Z,8.9
2017-10-31T11:18:12.506Z,8.9
2017-10-31T11:19:12.023Z,8.9
2017-10-31T11:20:11.179Z,8.9
2017-10-31T11:21:10.330Z,8.9
2017-10-31T11:22:09.351Z,8.9
2017-10-31T11:23:08.507Z,8.9
2017-10-31T11:24:07.527Z,8.9
2017-10-31T11:25:06.961Z,8.8
2017-10-31T11:26:05.480Z,8.9
2017-10-31T11:27:04.737Z,8.9
2017-10-31T11:28:04.261Z,8.9
2017-10-31T11:29:03.547Z,8.9
2017-10-31T11:30:02.055Z,8.9
2017-10-31T11:31:01.071Z,8.9
2017-10-31T11:32:00.585Z,8.9
2017-10-31T11:32:59.874Z,8.9
2017-10-31T11:33:58.649Z,8.9
2017-10-31T11:34:57.798Z,8.9
2017-10-31T11:35:56.815Z,8.9
2017-10-31T11:36:55.830Z,9
2017-10-31T11:37:54.849Z,9
2017-10-31T11:38:54.501Z,9.1
2017-10-31T11:39:53.642Z,9.1
2017-10-31T11:40:52.516Z,9.1
2017-10-31T11:41:51.668Z,9.1
2017-10-31T11:42:50.938Z,9
2017-10-31T11:43:49.953Z,9
2017-10-31T11:44:49.104Z,9
2017-10-31T11:45:48.252Z,9
2017-10-31T11:46:47.539Z,9
2017-10-31T11:47:46.436Z,8.9
2017-10-31T11:48:45.588Z,8.9
2017-10-31T11:49:44.733Z,8.9
2017-10-31T11:50:43.617Z,8.9
2017-10-31T11:51:42.897Z,8.9
2017-10-31T11:52:42.058Z,8.8
2017-10-31T11:54:40.715Z,8.8
2017-10-31T11:55:39.646Z,8.8
2017-10-31T11:56:38.920Z,8.9
2017-10-31T11:57:37.570Z,8.9
2017-10-31T11:58:36.584Z,8.9
2017-10-31T11:59:35.726Z,8.9
2017-10-31T12:00:34.737Z,8.9
2017-10-31T12:02:33.137Z,9
2017-10-31T12:03:32.161Z,9
2017-10-31T12:04:31.314Z,9
2017-10-31T12:05:30.338Z,9
2017-10-31T12:06:29.630Z,9
2017-10-31T12:07:28.648Z,9
2017-10-31T12:08:28.069Z,9
2017-10-31T12:09:26.954Z,9
2017-10-31T12:10:26.114Z,9
2017-10-31T12:11:25.137Z,9
2017-10-31T12:12:24.555Z,9
2017-10-31T12:13:23.717Z,9
2017-10-31T12:14:22.868Z,9
2017-10-31T12:15:21.382Z,9
2017-10-31T12:16:20.773Z,9
2017-10-31T12:17:19.916Z,9
2017-10-31T12:18:19.063Z,9
2017-10-31T12:19:17.945Z,9
2017-10-31T12:20:17.604Z,9
2017-10-31T12:21:16.872Z,9
2017-10-31T12:22:15.665Z,9
2017-10-31T12:22:46.145Z,9
2017-10-31T12:23:16.597Z,9
2017-10-31T12:23:47.060Z,9
2017-10-31T12:25:12.873Z,9
2017-10-31T12:26:12.148Z,9.1
2017-10-31T12:27:11.163Z,9.1
2017-10-31T12:28:10.174Z,9.1
2017-10-31T12:29:09.596Z,9.1
2017-10-31T12:30:08.893Z,9.1
2017-10-31T12:31:07.536Z,9.2
2017-10-31T12:32:06.556Z,9.2
2017-10-31T12:33:05.845Z,9.2
2017-10-31T12:34:04.988Z,9.2
2017-10-31T12:36:03.279Z,9.3
2017-10-31T12:37:02.292Z,9.3
2017-10-31T12:39:01.113Z,9.2
2017-10-31T12:39:59.753Z,9.2
2017-10-31T12:41:57.788Z,9.2
2017-10-31T12:42:28.381Z,9.2
2017-10-31T12:42:58.707Z,9.2
2017-10-31T12:43:56.351Z,9.2
2017-10-31T12:44:55.229Z,9.2
2017-10-31T12:45:54.243Z,9.2
2017-10-31T12:46:53.758Z,9.2
2017-10-31T12:47:53.185Z,9.3
2017-10-31T12:48:51.821Z,9.3
2017-10-31T12:49:51.109Z,9.3
2017-10-31T12:50:50.381Z,9.3
2017-10-31T12:51:49.397Z,9.3
2017-10-31T12:52:47.911Z,9.4
2017-10-31T12:53:47.295Z,9.4
2017-10-31T12:54:46.456Z,9.4
2017-10-31T12:55:45.467Z,9.4
2017-10-31T12:56:44.501Z,9.3
2017-10-31T12:57:43.748Z,9.3
2017-10-31T12:58:42.908Z,9.3
2017-10-31T12:59:42.188Z,9.3
2017-10-31T13:00:41.342Z,9.3
2017-10-31T13:01:40.619Z,9.3
2017-10-31T13:02:39.366Z,9.3
2017-10-31T13:03:38.794Z,9.3
2017-10-31T13:04:37.955Z,9.3
2017-10-31T13:05:37.366Z,9.3
2017-10-31T13:06:07.838Z,9.3
2017-10-31T13:07:35.391Z,9.3
2017-10-31T13:08:34.229Z,9.3
2017-10-31T13:09:33.274Z,9.3
2017-10-31T13:10:32.995Z,9.3
2017-10-31T13:11:31.464Z,9.3
2017-10-31T13:12:30.903Z,9.3
2017-10-31T13:13:30.006Z,9.4
2017-10-31T13:14:29.184Z,9.4
2017-10-31T13:15:28.213Z,9.4
2017-10-31T13:17:26.279Z,9.4
2017-10-31T13:19:24.711Z,9.4
2017-10-31T13:20:23.925Z,9.4
2017-10-31T13:21:22.818Z,9.4
2017-10-31T13:22:22.266Z,9.4
2017-10-31T13:23:21.283Z,9.4
2017-10-31T13:24:20.095Z,9.4
2017-10-31T13:25:19.156Z,9.4
2017-10-31T13:28:05.207Z,9.4
2017-10-31T13:28:20.743Z,9.4
2017-10-31T13:29:16.238Z,9.4
2017-10-31T13:30:15.009Z,9.4
2017-10-31T13:31:14.286Z,9.4
2017-10-31T13:32:13.304Z,9.4
2017-10-31T13:33:12.463Z,9.4
2017-10-31T13:34:11.481Z,9.4
2017-10-31T13:35:10.501Z,9.4
2017-10-31T13:36:09.517Z,9.4
2017-10-31T13:37:09.033Z,9.4
2017-10-31T13:38:07.928Z,9.4
2017-10-31T13:39:07.206Z,9.4
2017-10-31T13:40:06.487Z,9.4
2017-10-31T13:41:05.372Z,9.4
2017-10-31T13:42:04.527Z,9.4
2017-10-31T13:43:03.680Z,9.4
2017-10-31T13:44:02.956Z,9.5
2017-10-31T13:45:01.836Z,9.5
2017-10-31T13:45:32.533Z,9.5
2017-10-31T13:46:03.540Z,9.5
2017-10-31T13:46:33.996Z,9.5
2017-10-31T13:47:04.192Z,9.5
2017-10-31T13:47:35.155Z,9.5
2017-10-31T13:48:05.757Z,9.6
2017-10-31T13:48:58.237Z,9.5
2017-10-31T13:50:57.032Z,9.5
2017-10-31T13:51:56.206Z,9.5
2017-10-31T13:52:54.979Z,9.5
2017-10-31T13:53:54.000Z,9.5
2017-10-31T13:54:52.880Z,9.4
2017-10-31T13:55:52.659Z,9.4
2017-10-31T13:56:51.676Z,9.4
2017-10-31T13:57:50.960Z,9.4
2017-10-31T13:58:50.113Z,9.4
2017-10-31T13:59:48.623Z,9.3
2017-10-31T14:00:48.273Z,9.3
2017-10-31T14:01:46.648Z,9.3
2017-10-31T14:02:46.537Z,9.3